Time;durP1;ratioP1;P1;durP2;ratioP2;P2;SDS_P1;SDS_P2;PMS_P1;PMS_P2;Temp;Humidity;BMP_temperature;BMP_pressure;BME280_temperature;BME280_humidity;BME280_pressure;Samples;Min_cycle;Max_cycle;Signal;HPM_P1;HPM_P2
2022/11/01 00:01:31;;;;;;;10.80;4.25;;;9.60;99.90;;;;;;5074178;28;20497;-51
2022/11/01 00:03:58;;;;;;;8.27;3.95;;;9.40;99.90;;;;;;5071574;28;20036;-51
2022/11/01 00:06:25;;;;;;;12.25;4.10;;;9.40;99.90;;;;;;5064858;28;20041;-50
2022/11/01 00:08:52;;;;;;;9.15;3.35;;;9.40;99.90;;;;;;5080431;28;20059;-51
2022/11/01 00:11:19;;;;;;;7.55;3.03;;;9.40;99.90;;;;;;5068142;28;20121;-51
2022/11/01 00:13:47;;;;;;;10.13;3.45;;;9.30;99.90;;;;;;5071429;28;20071;-51
2022/11/01 00:16:15;;;;;;;9.30;3.10;;;9.20;99.90;;;;;;5080537;28;20040;-48
2022/11/01 00:18:42;;;;;;;10.07;3.28;;;9.20;99.90;;;;;;5083451;28;20068;-48
2022/11/01 00:21:10;;;;;;;7.18;3.38;;;9.00;99.90;;;;;;5069864;28;20947;-52
2022/11/01 00:23:38;;;;;;;10.02;3.97;;;8.90;99.90;;;;;;5070057;28;20048;-49
2022/11/01 00:26:05;;;;;;;12.63;4.35;;;9.00;99.90;;;;;;5071842;28;20409;-49
2022/11/01 00:28:32;;;;;;;;;;;9.10;99.90;;;;;;5071893;28;20037;-49
2022/11/01 00:31:00;;;;;;;10.25;4.10;;;9.30;99.90;;;;;;5070955;28;19963;-52
2022/11/01 00:33:26;;;;;;;13.40;3.70;;;9.40;99.90;;;;;;5073253;28;20573;-51
2022/11/01 00:35:58;;;;;;;9.13;3.80;;;9.50;99.90;;;;;;5070655;28;20040;-49
2022/11/01 00:38:24;;;;;;;15.35;4.40;;;9.50;99.90;;;;;;5071614;28;20072;-49
2022/11/01 00:40:51;;;;;;;10.65;4.00;;;9.50;99.90;;;;;;5059318;28;20113;-49
2022/11/01 00:43:18;;;;;;;10.40;3.97;;;9.50;99.90;;;;;;5082445;28;20041;-50
2022/11/01 00:45:50;;;;;;;12.73;3.47;;;9.60;99.90;;;;;;5072617;28;20033;-53
2022/11/01 00:48:16;;;;;;;11.25;4.25;;;9.50;99.90;;;;;;5075186;28;20041;-50
2022/11/01 00:50:43;;;;;;;7.22;2.40;;;9.50;99.90;;;;;;5067023;28;20165;-52
2022/11/01 00:53:11;;;;;;;5.45;2.78;;;9.40;99.90;;;;;;5075021;28;20048;-47
2022/11/01 00:55:39;;;;;;;6.30;3.10;;;9.10;99.90;;;;;;5069385;28;20075;-49
2022/11/01 00:58:06;;;;;;;6.72;2.70;;;8.90;99.90;;;;;;5075758;28;20040;-47
2022/11/01 01:00:33;;;;;;;7.93;3.30;;;8.60;99.90;;;;;;5070451;28;20037;-48
2022/11/01 01:03:00;;;;;;;9.38;3.42;;;8.50;99.90;;;;;;5070679;28;20040;-47
2022/11/01 01:05:27;;;;;;;;;;;8.30;99.90;;;;;;5077750;28;20067;-47
2022/11/01 01:07:54;;;;;;;7.65;2.78;;;8.30;99.90;;;;;;5075618;28;19924;-48
2022/11/01 01:10:21;;;;;;;8.65;2.85;;;8.20;99.90;;;;;;5072977;28;20045;-47
2022/11/01 01:12:48;;;;;;;9.38;3.28;;;8.20;99.90;;;;;;5070857;28;20060;-48
2022/11/01 01:15:15;;;;;;;10.63;2.85;;;8.30;99.90;;;;;;5078290;28;20043;-49
2022/11/01 01:17:42;;;;;;;9.27;2.88;;;8.30;99.90;;;;;;5075556;28;20523;-47
2022/11/01 01:20:09;;;;;;;8.02;3.20;;;8.20;99.90;;;;;;5072118;28;20095;-51
2022/11/01 01:22:36;;;;;;;8.52;2.80;;;8.10;99.90;;;;;;5075271;28;20066;-55
2022/11/01 01:25:03;;;;;;;8.95;2.60;;;8.10;99.90;;;;;;5074000;28;20068;-47
2022/11/01 01:27:29;;;;;;;8.07;2.35;;;8.00;99.90;;;;;;5064098;28;20051;-47
2022/11/01 01:29:56;;;;;;;7.88;2.50;;;7.90;99.90;;;;;;5070214;28;20049;-52
2022/11/01 01:32:23;;;;;;;5.55;2.08;;;7.90;99.90;;;;;;5070549;28;20417;-48
2022/11/01 01:34:50;;;;;;;10.85;2.60;;;7.80;99.90;;;;;;5077190;28;20064;-48
2022/11/01 01:37:17;;;;;;;8.60;2.75;;;7.70;99.90;;;;;;5071728;28;20110;-49
2022/11/01 01:39:44;;;;;;;7.07;2.75;;;7.70;99.90;;;;;;5073972;28;20044;-48
2022/11/01 01:42:37;;;;;;;5.75;2.85;;;7.70;99.90;;;;;;5070928;28;20067;-49
2022/11/01 01:45:03;;;;;;;10.82;3.47;;;7.80;99.90;;;;;;5074832;28;20036;-52
2022/11/01 01:47:33;;;;;;;7.35;2.65;;;7.80;99.90;;;;;;5069614;28;20060;-49
2022/11/01 01:50:03;;;;;;;9.25;2.65;;;7.90;99.90;;;;;;5085957;28;20044;-49
2022/11/01 01:52:32;;;;;;;7.22;2.38;;;7.90;99.90;;;;;;5066117;28;20072;-48
2022/11/01 01:55:04;;;;;;;12.60;2.80;;;7.90;99.90;;;;;;5069904;28;20091;-48
2022/11/01 01:57:32;;;;;;;10.27;2.72;;;7.90;99.90;;;;;;5065993;28;20075;-48
2022/11/01 01:59:59;;;;;;;6.20;2.50;;;7.80;99.90;;;;;;5082002;28;20091;-48
2022/11/01 02:02:26;;;;;;;6.32;2.30;;;7.80;99.90;;;;;;5052773;28;20039;-49
2022/11/01 02:05:19;;;;;;;11.77;3.10;;;7.80;99.90;;;;;;5069570;28;20512;-49
2022/11/01 02:07:46;;;;;;;11.32;4.20;;;7.80;99.90;;;;;;5068865;28;20048;-48
2022/11/01 02:10:14;;;;;;;6.80;3.88;;;7.90;99.90;;;;;;5070161;28;20037;-49
2022/11/01 02:12:46;;;;;;;7.80;3.50;;;8.10;99.90;;;;;;5050932;28;20076;-51
2022/11/01 02:15:16;;;;;;;11.00;4.47;;;8.30;99.90;;;;;;5070179;28;20037;-52
2022/11/01 02:17:59;;;;;;;8.90;3.00;;;8.40;99.90;;;;;;5069109;28;20457;-49
2022/11/01 02:20:39;;;;;;;20.05;6.00;;;8.50;99.90;;;;;;5070092;28;20493;-49
2022/11/01 02:23:09;;;;;;;10.57;3.67;;;8.50;99.90;;;;;;5069711;28;20048;-49
2022/11/01 02:26:10;;;;;;;6.63;3.30;;;8.50;99.90;;;;;;5068633;28;20071;-53
2022/11/01 02:28:52;;;;;;;8.88;3.08;;;8.50;99.90;;;;;;5059268;28;20056;-51
2022/11/01 02:31:39;;;;;;;6.07;3.20;;;8.50;99.90;;;;;;5069275;28;20060;-51
2022/11/01 02:34:25;;;;;;;11.50;3.72;;;8.40;99.90;;;;;;5069292;28;20493;-55
2022/11/01 02:37:15;;;;;;;12.45;3.33;;;8.50;99.90;;;;;;5069386;28;20082;-53
2022/11/01 02:39:52;;;;;;;4.40;2.05;;;8.40;99.90;;;;;;5055398;28;20056;-51
2022/11/01 02:42:27;;;;;;;6.60;1.90;;;8.30;99.90;;;;;;5052747;28;20416;-52
2022/11/01 02:45:03;;;;;;;8.70;2.03;;;8.10;99.90;;;;;;5068805;28;20247;-52
2022/11/01 02:47:31;;;;;;;8.15;2.78;;;8.00;99.90;;;;;;5050200;28;20106;-49
2022/11/01 02:50:02;;;;;;;5.00;2.17;;;7.90;99.90;;;;;;5064289;28;20408;-49
2022/11/01 02:52:31;;;;;;;6.38;2.75;;;7.80;99.90;;;;;;5070264;28;20044;-48
2022/11/01 02:55:02;;;;;;;6.28;2.75;;;7.70;99.90;;;;;;5068729;28;20505;-49
2022/11/01 02:57:41;;;;;;;5.55;1.85;;;7.70;99.90;;;;;;5065360;28;20124;-49
2022/11/01 03:00:24;;;;;;;10.43;2.35;;;7.70;99.90;;;;;;5065983;28;20100;-50
2022/11/01 03:03:08;;;;;;;10.05;2.60;;;7.60;99.90;;;;;;5069442;28;20044;-51
2022/11/01 03:05:48;;;;;;;7.47;2.80;;;7.60;99.90;;;;;;5068739;28;20040;-49
2022/11/01 03:08:19;;;;;;;5.60;2.67;;;7.60;99.90;;;;;;5066204;28;20525;-50
2022/11/01 03:10:51;;;;;;;9.75;2.78;;;7.70;99.90;;;;;;5072911;28;20068;-51
2022/11/01 03:13:33;;;;;;;6.22;2.42;;;7.60;99.90;;;;;;5072362;28;20068;-49
2022/11/01 03:16:28;;;;;;;5.95;2.22;;;7.60;99.90;;;;;;5067124;28;20041;-50
2022/11/01 03:19:22;;;;;;;6.18;2.05;;;7.40;99.90;;;;;;5052182;28;20076;-49
2022/11/01 03:22:08;;;;;;;8.98;2.47;;;7.40;99.90;;;;;;5073708;28;20060;-49
2022/11/01 03:25:02;;;;;;;6.45;2.10;;;7.30;99.90;;;;;;5069761;28;20067;-51
2022/11/01 03:27:40;;;;;;;5.57;2.30;;;7.30;99.90;;;;;;5062001;28;20083;-50
2022/11/01 03:30:09;;;;;;;6.53;2.47;;;7.20;99.90;;;;;;5072115;28;20044;-48
2022/11/01 03:32:50;;;;;;;7.82;2.55;;;7.20;99.90;;;;;;5071607;28;20040;-51
2022/11/01 03:35:24;;;;;;;9.02;3.15;;;7.20;99.90;;;;;;5071789;28;20493;-49
2022/11/01 03:37:57;;;;;;;10.02;3.30;;;7.20;99.90;;;;;;5072904;28;20110;-51
2022/11/01 03:40:26;;;;;;;13.05;3.85;;;7.30;99.90;;;;;;5055408;28;20076;-51
2022/11/01 03:43:19;;;;;;;9.05;3.85;;;7.50;99.90;;;;;;5081104;22;20083;-53
2022/11/01 03:45:53;;;;;;;16.10;4.05;;;7.80;99.90;;;;;;5070061;28;20087;-55
2022/11/01 03:48:20;;;;;;;7.75;3.60;;;7.90;99.90;;;;;;5048553;28;20083;-51
2022/11/01 03:50:51;;;;;;;10.38;3.88;;;8.10;99.90;;;;;;5073017;28;20037;-54
2022/11/01 03:53:18;;;;;;;8.43;3.50;;;8.10;99.90;;;;;;5080858;28;20037;-53
2022/11/01 03:55:45;;;;;;;14.90;3.85;;;8.10;99.90;;;;;;5089484;28;20032;-52
2022/11/01 03:58:12;;;;;;;10.23;4.22;;;8.10;99.90;;;;;;5088818;28;20055;-54
2022/11/01 04:00:41;;;;;;;10.20;2.25;;;8.10;99.90;;;;;;5092792;28;20043;-52
2022/11/01 04:03:09;;;;;;;9.35;2.40;;;8.10;99.90;;;;;;5092538;28;20405;-54
2022/11/01 04:05:38;;;;;;;8.05;2.28;;;7.80;99.90;;;;;;5086021;28;20416;-54
2022/11/01 04:08:06;;;;;;;6.82;2.45;;;7.60;99.90;;;;;;5084494;28;20120;-51
2022/11/01 04:10:33;;;;;;;7.28;2.50;;;7.30;99.90;;;;;;5083800;28;20078;-54
2022/11/01 04:13:00;;;;;;;10.60;3.22;;;7.20;99.90;;;;;;5090761;28;20072;-51
2022/11/01 04:21:15;;;;;;;9.10;3.30;;;7.00;99.90;;;;;;5091206;28;20447;-52
2022/11/01 04:23:43;;;;;;;11.00;3.47;;;7.00;99.90;;;;;;5071258;28;20099;-51
2022/11/01 04:26:13;;;;;;;5.78;3.10;;;7.00;99.90;;;;;;5087753;28;20043;-51
2022/11/01 04:28:39;;;;;;;6.18;2.95;;;7.10;99.90;;;;;;5072081;28;20479;-55
2022/11/01 04:31:06;;;;;;;6.75;2.70;;;7.10;99.90;;;;;;5089541;28;20131;-51
2022/11/01 04:33:33;;;;;;;13.02;3.83;;;7.20;99.90;;;;;;5091778;28;20558;-53
2022/11/01 04:36:04;;;;;;;11.00;3.25;;;7.20;99.90;;;;;;5082208;28;20098;-54
2022/11/01 04:38:31;;;;;;;8.23;3.15;;;7.20;99.90;;;;;;5083995;28;20524;-53
2022/11/01 04:40:58;;;;;;;8.95;3.28;;;7.20;99.90;;;;;;5084823;28;20516;-52
2022/11/01 04:43:25;;;;;;;15.70;4.18;;;7.30;99.90;;;;;;5091965;28;20048;-55
2022/11/01 04:45:55;;;;;;;13.75;2.78;;;7.30;99.90;;;;;;5089941;28;20481;-55
2022/11/01 04:48:23;;;;;;;8.27;2.60;;;7.30;99.90;;;;;;5085766;28;20079;-52
2022/11/01 04:50:50;;;;;;;7.45;2.47;;;7.20;99.90;;;;;;5090833;28;20060;-51
2022/11/01 04:53:17;;;;;;;6.97;2.10;;;7.10;99.90;;;;;;5091796;28;20093;-53
2022/11/01 04:55:43;;;;;;;9.15;2.35;;;7.10;99.90;;;;;;5086604;28;20048;-56
2022/11/01 04:58:10;;;;;;;3.92;2.03;;;7.10;99.90;;;;;;5088782;28;20040;-51
2022/11/01 05:00:37;;;;;;;5.90;2.30;;;7.00;99.90;;;;;;5090734;28;20081;-54
2022/11/01 05:03:06;;;;;;;9.02;3.25;;;7.10;99.90;;;;;;5092065;28;20482;-51
2022/11/01 05:05:34;;;;;;;8.85;3.20;;;7.20;99.90;;;;;;5082697;28;20455;-54
2022/11/01 05:08:02;;;;;;;12.10;3.13;;;7.30;99.90;;;;;;5084817;28;20040;-51
2022/11/01 05:10:30;;;;;;;13.48;3.63;;;7.40;99.90;;;;;;5089887;28;20044;-51
2022/11/01 05:12:56;;;;;;;;;;;7.40;99.90;;;;;;5091331;28;20565;-52
2022/11/01 05:15:23;;;;;;;6.95;2.75;;;7.40;99.90;;;;;;5090468;28;19959;-52
2022/11/01 05:17:50;;;;;;;11.48;3.22;;;7.30;99.90;;;;;;5085525;28;20059;-51
2022/11/01 05:20:17;;;;;;;7.18;2.70;;;7.20;99.90;;;;;;5075947;28;20032;-55
2022/11/01 05:22:44;;;;;;;6.47;2.15;;;7.20;99.90;;;;;;5083649;28;20032;-53
2022/11/01 05:25:11;;;;;;;7.13;1.73;;;7.20;99.90;;;;;;5079780;28;20101;-52
2022/11/01 05:27:38;;;;;;;6.28;2.45;;;7.10;99.90;;;;;;5090959;28;20086;-54
2022/11/01 05:30:05;;;;;;;8.73;2.33;;;7.10;99.90;;;;;;5081288;28;20060;-52
2022/11/01 05:32:34;;;;;;;4.00;1.95;;;7.10;99.90;;;;;;5082874;28;20074;-53
2022/11/01 05:35:01;;;;;;;3.88;1.63;;;7.10;99.90;;;;;;5089703;28;20093;-51
2022/11/01 05:37:28;;;;;;;7.20;1.70;;;7.00;99.90;;;;;;5091227;28;20039;-53
2022/11/01 05:39:54;;;;;;;8.32;1.55;;;7.10;99.90;;;;;;5085012;28;20082;-52
2022/11/01 05:42:21;;;;;;;5.82;1.33;;;7.10;99.90;;;;;;5088952;28;20063;-52
2022/11/01 05:44:48;;;;;;;7.05;1.05;;;7.10;99.90;;;;;;5090267;28;20469;-51
2022/11/01 05:47:15;;;;;;;5.18;2.38;;;7.10;99.90;;;;;;5091198;28;20089;-51
2022/11/01 05:49:43;;;;;;;6.53;2.42;;;7.10;99.90;;;;;;5081343;28;20048;-53
2022/11/01 05:52:10;;;;;;;8.23;2.25;;;7.10;99.90;;;;;;5090809;28;20447;-51
2022/11/01 05:54:36;;;;;;;4.03;1.98;;;7.20;99.90;;;;;;5090365;28;20044;-52
2022/11/01 05:57:05;;;;;;;7.53;1.85;;;7.30;99.90;;;;;;5082525;28;20127;-51
2022/11/01 05:59:31;;;;;;;7.13;1.90;;;7.40;99.90;;;;;;5090656;28;20157;-52
2022/11/01 06:01:58;;;;;;;5.18;1.48;;;7.50;99.90;;;;;;5087758;28;20044;-54
2022/11/01 06:04:25;;;;;;;4.32;1.85;;;7.60;99.90;;;;;;5090643;28;20052;-51
2022/11/01 06:06:52;;;;;;;8.68;1.92;;;7.60;99.90;;;;;;5089991;28;20081;-51
2022/11/01 06:09:18;;;;;;;4.18;1.90;;;7.60;99.90;;;;;;5083905;28;20134;-51
2022/11/01 06:11:45;;;;;;;7.75;1.60;;;7.40;99.90;;;;;;5089607;28;20133;-52
2022/11/01 06:14:12;;;;;;;4.80;2.40;;;7.40;99.90;;;;;;5090295;28;20068;-52
2022/11/01 06:16:39;;;;;;;8.77;2.33;;;7.30;99.90;;;;;;5085489;28;21051;-54
2022/11/01 06:19:05;;;;;;;6.88;2.30;;;7.20;99.90;;;;;;5087720;28;20075;-51
2022/11/01 06:21:32;;;;;;;2.70;1.77;;;7.10;99.90;;;;;;5072534;28;20471;-51
2022/11/01 06:23:59;;;;;;;9.02;3.67;;;7.00;99.90;;;;;;5084136;28;20048;-51
2022/11/01 06:26:25;;;;;;;5.78;3.90;;;7.10;99.90;;;;;;5088827;28;20084;-52
2022/11/01 06:28:52;;;;;;;18.13;5.32;;;7.20;99.90;;;;;;5090158;28;20040;-51
2022/11/01 06:31:19;;;;;;;18.70;4.55;;;7.20;99.90;;;;;;5088696;28;20550;-52
2022/11/01 06:33:49;;;;;;;11.30;4.30;;;7.30;99.90;;;;;;5076061;28;20113;-52
2022/11/01 06:36:15;;;;;;;12.90;5.40;;;7.40;99.90;;;;;;5090040;28;20569;-51
2022/11/01 06:38:42;;;;;;;21.30;3.05;;;7.50;99.90;;;;;;5090442;28;20043;-52
2022/11/01 06:41:09;;;;;;;11.05;4.38;;;7.50;99.90;;;;;;5088030;28;20079;-55
2022/11/01 06:43:35;;;;;;;9.35;4.57;;;7.40;99.90;;;;;;5094435;28;20094;-51
2022/11/01 06:46:02;;;;;;;10.07;4.10;;;7.40;99.90;;;;;;5087627;28;20403;-53
2022/11/01 06:48:29;;;;;;;12.10;4.45;;;7.30;99.90;;;;;;5093397;28;20435;-52
2022/11/01 06:50:56;;;;;;;13.45;4.63;;;7.40;99.90;;;;;;5092138;28;20094;-52
2022/11/01 06:53:23;;;;;;;9.05;3.70;;;7.40;99.90;;;;;;5093268;28;20069;-54
2022/11/01 06:55:51;;;;;;;12.02;5.30;;;7.50;99.90;;;;;;5089739;28;20032;-52
2022/11/01 06:58:17;;;;;;;;;;;7.60;99.90;;;;;;5094803;28;20047;-52
2022/11/01 07:00:44;;;;;;;9.60;4.30;;;7.70;99.90;;;;;;5088860;28;20355;-55
2022/11/01 07:03:13;;;;;;;16.00;6.50;;;7.80;99.90;;;;;;5090948;28;20454;-52
2022/11/01 07:05:40;;;;;;;10.80;3.90;;;7.80;99.90;;;;;;5089716;28;20627;-52
2022/11/01 07:08:08;;;;;;;;;;;7.80;99.90;;;;;;5094303;28;20043;-54
2022/11/01 07:10:36;;;;;;;9.35;3.70;;;7.70;99.90;;;;;;5092586;28;19964;-52
2022/11/01 07:13:05;;;;;;;9.27;4.05;;;7.60;99.90;;;;;;5088281;28;20044;-53
2022/11/01 07:15:32;;;;;;;7.65;4.15;;;7.50;99.90;;;;;;5076963;28;20334;-51
2022/11/01 07:18:02;;;;;;;11.93;3.80;;;7.50;99.90;;;;;;5092648;28;20102;-54
2022/11/01 07:20:35;;;;;;;7.80;3.33;;;7.50;99.90;;;;;;5086583;28;20051;-52
2022/11/01 07:23:04;;;;;;;9.07;4.80;;;7.50;99.90;;;;;;5093732;28;20446;-51
2022/11/01 07:25:32;;;;;;;12.60;4.32;;;7.60;99.90;;;;;;5088089;28;20040;-55
2022/11/01 07:27:59;;;;;;;8.63;4.15;;;7.70;99.90;;;;;;5089718;28;20095;-51
2022/11/01 07:30:26;;;;;;;9.15;4.60;;;7.90;99.90;;;;;;5092368;28;20063;-54
2022/11/01 07:32:55;;;;;;;9.98;3.88;;;8.00;99.90;;;;;;5092750;28;20107;-52
2022/11/01 07:35:23;;;;;;;9.30;4.25;;;8.10;99.90;;;;;;5090875;28;20094;-51
2022/11/01 07:37:50;;;;;;;9.80;4.03;;;8.10;99.90;;;;;;5093192;28;20036;-54
2022/11/01 07:40:17;;;;;;;8.45;3.88;;;8.30;99.90;;;;;;5086921;28;20440;-53
2022/11/01 07:42:44;;;;;;;9.63;4.10;;;8.30;99.90;;;;;;5092960;28;20031;-51
2022/11/01 07:45:13;;;;;;;10.25;4.15;;;8.30;99.90;;;;;;5073520;28;20463;-52
2022/11/01 07:47:39;;;;;;;10.75;3.83;;;8.50;99.90;;;;;;5092821;28;20048;-54
2022/11/01 07:50:06;;;;;;;16.67;4.28;;;8.60;99.90;;;;;;5090935;28;20079;-55
2022/11/01 07:52:33;;;;;;;12.90;6.00;;;8.70;99.90;;;;;;5091887;28;20488;-54
2022/11/01 07:55:00;;;;;;;8.20;3.92;;;8.70;99.90;;;;;;5093103;28;20777;-55
2022/11/01 07:57:26;;;;;;;11.95;5.10;;;8.80;99.90;;;;;;5089963;28;20044;-51
2022/11/01 07:59:53;;;;;;;17.83;7.70;;;9.00;99.90;;;;;;5092618;28;20048;-52
2022/11/01 08:02:20;;;;;;;18.52;8.30;;;9.10;99.90;;;;;;5091065;28;20106;-52
2022/11/01 08:04:47;;;;;;;12.52;6.13;;;9.20;99.90;;;;;;5086320;28;20056;-54
2022/11/01 08:07:13;;;;;;;16.55;6.28;;;9.30;99.90;;;;;;5090518;28;20102;-52
2022/11/01 08:09:42;;;;;;;13.65;6.43;;;9.50;99.90;;;;;;5084832;28;20040;-51
2022/11/01 08:12:09;;;;;;;15.95;5.95;;;9.50;99.90;;;;;;5090884;28;20102;-51
2022/11/01 08:14:36;;;;;;;14.18;5.80;;;9.60;99.90;;;;;;5091245;28;20090;-54
2022/11/01 08:17:03;;;;;;;11.18;5.53;;;9.70;99.90;;;;;;5078957;28;20044;-51
2022/11/01 08:19:29;;;;;;;11.73;6.03;;;9.80;99.90;;;;;;5092300;28;20048;-52
2022/11/01 08:21:57;;;;;;;11.23;6.25;;;10.00;99.90;;;;;;5091339;28;20466;-53
2022/11/01 08:24:25;;;;;;;11.10;5.32;;;10.00;99.90;;;;;;5085515;28;20508;-51
2022/11/01 08:26:52;;;;;;;13.98;5.72;;;10.00;99.90;;;;;;5091173;28;20565;-54
2022/11/01 08:29:19;;;;;;;10.63;5.65;;;9.90;99.90;;;;;;5091072;28;20091;-54
2022/11/01 08:31:48;;;;;;;13.20;6.40;;;10.00;99.90;;;;;;5086564;28;20041;-54
2022/11/01 08:34:14;;;;;;;13.13;6.35;;;10.10;99.90;;;;;;5088841;28;20036;-53
2022/11/01 08:36:42;;;;;;;13.80;5.93;;;10.30;99.90;;;;;;5091668;28;20508;-52
2022/11/01 08:39:09;;;;;;;16.08;5.63;;;10.50;99.90;;;;;;5092309;28;20764;-53
2022/11/01 08:41:36;;;;;;;14.30;5.50;;;10.60;99.90;;;;;;5084264;28;20036;-56
2022/11/01 08:44:03;;;;;;;13.20;6.35;;;10.80;99.90;;;;;;5091336;28;20040;-54
2022/11/01 08:46:30;;;;;;;8.15;4.75;;;10.80;99.90;;;;;;5090807;28;20068;-52
2022/11/01 08:48:59;;;;;;;10.52;5.75;;;10.90;99.90;;;;;;5091494;28;20048;-56
2022/11/01 08:51:26;;;;;;;12.85;5.03;;;10.90;99.90;;;;;;5084044;28;20102;-53
2022/11/01 08:53:56;;;;;;;;;;;10.90;99.90;;;;;;5092007;28;20043;-53
2022/11/01 08:56:27;;;;;;;13.50;5.25;;;11.00;99.90;;;;;;5090945;28;19948;-49
2022/11/01 08:58:54;;;;;;;14.40;5.13;;;11.10;99.90;;;;;;5086352;28;20053;-54
2022/11/01 09:01:28;;;;;;;14.52;5.57;;;11.10;99.90;;;;;;5087166;28;20051;-52
2022/11/01 09:04:00;;;;;;;21.40;5.90;;;11.20;99.90;;;;;;5089617;28;20044;-53
2022/11/01 09:06:27;;;;;;;11.98;5.15;;;11.30;99.90;;;;;;5090252;28;20102;-51
2022/11/01 09:09:02;;;;;;;8.43;4.50;;;11.60;99.90;;;;;;5071057;28;20048;-56
2022/11/01 09:11:29;;;;;;;10.02;4.85;;;11.70;99.90;;;;;;5091125;28;20109;-55
2022/11/01 09:14:00;;;;;;;11.80;5.28;;;12.00;99.90;;;;;;5090226;28;20111;-54
2022/11/01 09:16:27;;;;;;;7.63;4.28;;;12.10;99.90;;;;;;5089763;28;20043;-51
2022/11/01 09:18:54;;;;;;;13.93;5.55;;;12.30;99.90;;;;;;5085409;28;20094;-54
2022/11/01 09:21:20;;;;;;;8.40;4.80;;;12.50;99.90;;;;;;5072877;28;20776;-51
2022/11/01 09:23:47;;;;;;;13.57;5.03;;;12.80;99.90;;;;;;5087464;28;20082;-51
2022/11/01 09:26:14;;;;;;;12.48;5.57;;;12.90;99.90;;;;;;5091132;28;20117;-52
2022/11/01 09:28:40;;;;;;;14.13;5.28;;;13.10;99.90;;;;;;5082345;28;20032;-51
2022/11/01 09:31:09;;;;;;;11.23;5.28;;;13.20;99.90;;;;;;5099426;28;20032;-56
2022/11/01 09:33:58;;;;;;;9.95;4.40;;;13.30;99.90;;;;;;5088717;28;20086;-53
2022/11/01 09:36:26;;;;;;;11.07;4.80;;;13.30;99.90;;;;;;5071668;28;20489;-51
2022/11/01 09:38:54;;;;;;;12.60;5.05;;;13.40;99.90;;;;;;5085361;28;20040;-52
2022/11/01 09:41:41;;;;;;;13.90;5.40;;;13.40;99.90;;;;;;5091053;28;20489;-52
2022/11/01 09:44:24;;;;;;;8.88;4.38;;;13.50;99.90;;;;;;5099963;22;20040;-52
2022/11/01 09:47:49;;;;;;;6.95;5.05;;;13.60;99.90;;;;;;5087818;28;20047;-53
2022/11/01 09:50:25;;;;;;;11.10;5.03;;;13.80;99.90;;;;;;5089329;28;20040;-51
2022/11/01 09:52:54;;;;;;;7.43;4.43;;;14.00;99.90;;;;;;5097315;28;20493;-50
2022/11/01 09:55:32;;;;;;;11.13;4.38;;;14.10;99.90;;;;;;5108145;28;20120;-53
2022/11/01 09:58:05;;;;;;;;;;;14.30;99.90;;;;;;5099244;28;20709;-50
2022/11/01 10:00:35;;;;;;;7.60;3.58;;;14.40;99.90;;;;;;5075036;28;20016;-49
2022/11/01 10:03:24;;;;;;;14.20;4.05;;;14.40;99.90;;;;;;5081982;28;20045;-50
2022/11/01 10:06:14;;;;;;;10.52;4.55;;;14.30;99.90;;;;;;5070426;28;20044;-53
2022/11/01 10:08:52;;;;;;;9.63;4.32;;;14.50;99.90;;;;;;5085566;28;20035;-50
2022/11/01 10:11:28;;;;;;;7.25;4.35;;;14.60;99.90;;;;;;5090663;28;20048;-49
2022/11/01 10:14:29;;;;;;;9.82;3.92;;;14.70;99.90;;;;;;5077951;28;20040;-50
2022/11/01 10:17:08;;;;;;;9.90;3.38;;;14.70;99.90;;;;;;5077573;28;20048;-49
2022/11/01 10:19:36;;;;;;;7.93;3.05;;;14.80;99.90;;;;;;5100146;28;20040;-50
2022/11/01 10:22:13;;;;;;;11.55;3.65;;;15.00;99.90;;;;;;5101028;28;20048;-50
2022/11/01 10:25:03;;;;;;;11.52;4.07;;;15.10;99.90;;;;;;5084287;28;20478;-50
2022/11/01 10:28:00;;;;;;;6.30;3.15;;;15.20;99.90;;;;;;5072656;28;21267;-51
2022/11/01 10:30:35;;;;;;;8.93;2.88;;;15.30;99.90;;;;;;5084079;28;20037;-51
2022/11/01 10:33:30;;;;;;;6.35;2.92;;;15.40;99.90;;;;;;5081015;28;20090;-51
2022/11/01 10:36:04;;;;;;;5.25;3.15;;;15.50;99.90;;;;;;5083010;28;20109;-54
2022/11/01 10:38:39;;;;;;;6.65;3.03;;;15.50;99.90;;;;;;5085441;28;20039;-50
2022/11/01 10:41:39;;;;;;;7.30;2.70;;;15.50;99.90;;;;;;5079206;28;20102;-51
2022/11/01 10:44:20;;;;;;;5.18;2.70;;;15.50;99.90;;;;;;5086110;28;20102;-52
2022/11/01 10:46:50;;;;;;;7.05;3.03;;;15.50;99.90;;;;;;5083559;28;20094;-50
2022/11/01 10:49:41;;;;;;;8.07;2.80;;;15.60;99.90;;;;;;5082983;28;20036;-53
2022/11/01 10:52:41;;;;;;;7.00;3.30;;;15.70;99.90;;;;;;5090274;28;20043;-50
2022/11/01 10:55:12;;;;;;;8.35;3.30;;;15.80;99.90;;;;;;5076815;28;20045;-52
2022/11/01 10:58:19;;;;;;;8.23;3.30;;;16.00;99.90;;;;;;5075899;28;20373;-51
2022/11/01 11:00:47;;;;;;;7.05;3.63;;;16.10;99.90;;;;;;5072020;28;20080;-53
2022/11/01 11:03:22;;;;;;;4.43;2.88;;;16.30;99.90;;;;;;5093128;28;20127;-50
2022/11/01 11:05:51;;;;;;;7.38;2.90;;;16.50;99.90;;;;;;5081098;28;20095;-51
2022/11/01 11:08:22;;;;;;;5.82;2.50;;;16.60;99.90;;;;;;5110450;28;20040;-51
2022/11/01 11:10:49;;;;;;;8.05;3.28;;;16.70;99.90;;;;;;5087564;28;20045;-53
2022/11/01 11:13:21;;;;;;;4.45;2.70;;;16.90;99.90;;;;;;5095100;28;20048;-52
2022/11/01 11:15:52;;;;;;;7.97;2.85;;;17.10;99.90;;;;;;5074910;28;20064;-50
2022/11/01 11:18:35;;;;;;;10.50;3.78;;;17.20;99.90;;;;;;5073503;28;20087;-50
2022/11/01 11:21:07;;;;;;;4.32;2.42;;;17.30;99.90;;;;;;5058982;28;20400;-50
2022/11/01 11:23:41;;;;;;;9.45;2.60;;;17.30;99.90;;;;;;5093826;28;20036;-51
2022/11/01 11:26:15;;;;;;;9.70;2.67;;;17.40;99.90;;;;;;5085388;28;20039;-50
2022/11/01 11:28:50;;;;;;;11.52;2.78;;;17.40;99.90;;;;;;5082324;28;20407;-50
2022/11/01 11:31:30;;;;;;;10.30;2.80;;;17.50;99.90;;;;;;5083484;28;20036;-53
2022/11/01 11:34:03;;;;;;;8.60;2.80;;;17.50;99.90;;;;;;5076122;28;20116;-49
2022/11/01 11:36:37;;;;;;;6.90;2.88;;;17.50;99.90;;;;;;5101407;28;20097;-52
2022/11/01 11:39:04;;;;;;;10.13;3.00;;;17.60;99.90;;;;;;5089471;28;20067;-52
2022/11/01 11:41:35;;;;;;;9.27;3.00;;;17.60;99.90;;;;;;5113566;28;20075;-51
2022/11/01 11:44:02;;;;;;;13.98;3.40;;;17.70;99.90;;;;;;5101474;28;20455;-50
2022/11/01 11:46:28;;;;;;;6.18;2.33;;;17.60;99.90;;;;;;5110412;28;20039;-51
2022/11/01 11:49:00;;;;;;;9.43;2.70;;;17.60;99.90;;;;;;5091832;28;20412;-51
2022/11/01 11:51:28;;;;;;;8.75;2.65;;;17.70;99.90;;;;;;5085810;28;20097;-50
2022/11/01 11:54:22;;;;;;;4.75;2.60;;;17.70;99.90;;;;;;5090451;28;20476;-51
2022/11/01 11:56:51;;;;;;;7.10;2.92;;;17.80;99.90;;;;;;5083468;28;20040;-54
2022/11/01 11:59:27;;;;;;;8.77;3.08;;;18.00;99.90;;;;;;5077990;28;20044;-50
2022/11/01 12:02:19;;;;;;;5.63;2.53;;;18.10;99.90;;;;;;5079711;28;20041;-51
2022/11/01 12:04:53;;;;;;;7.65;3.13;;;18.20;99.90;;;;;;5077714;28;20115;-50
2022/11/01 12:07:38;;;;;;;8.05;2.88;;;18.40;99.90;;;;;;5076288;28;20078;-50
2022/11/01 12:10:28;;;;;;;5.65;2.70;;;18.40;99.90;;;;;;5085001;28;20048;-50
2022/11/01 12:12:58;;;;;;;8.02;3.55;;;18.50;99.90;;;;;;5078637;28;20071;-52
2022/11/01 12:15:27;;;;;;;8.95;2.70;;;18.40;99.90;;;;;;5084548;28;20459;-51
2022/11/01 12:17:54;;;;;;;10.68;2.67;;;18.40;99.90;;;;;;5080268;28;20094;-51
2022/11/01 12:20:24;;;;;;;8.88;2.60;;;18.30;99.90;;;;;;5085660;28;20098;-53
2022/11/01 12:23:09;;;;;;;9.43;2.80;;;18.30;99.90;;;;;;5079529;28;20055;-52
2022/11/01 12:25:38;;;;;;;10.93;4.28;;;18.40;99.90;;;;;;5083711;28;20040;-54
2022/11/01 12:28:40;;;;;;;8.77;4.65;;;18.30;99.90;;;;;;5079739;28;20040;-54
2022/11/01 12:31:16;;;;;;;11.05;4.60;;;18.30;99.90;;;;;;5081217;28;20040;-51
2022/11/01 12:33:57;;;;;;;13.20;4.18;;;18.20;99.90;;;;;;5084158;28;20118;-50
2022/11/01 12:36:32;;;;;;;9.10;2.47;;;18.20;99.90;;;;;;5084191;28;20063;-52
2022/11/01 12:39:19;;;;;;;8.55;3.17;;;18.10;99.90;;;;;;5088614;28;20068;-52
2022/11/01 12:41:56;;;;;;;8.93;3.08;;;18.10;99.90;;;;;;5089055;28;20064;-50
2022/11/01 12:44:40;;;;;;;9.07;2.72;;;17.90;99.90;;;;;;5111449;28;20404;-51
2022/11/01 12:47:13;;;;;;;9.57;3.08;;;17.80;99.90;;;;;;5081669;28;20471;-51
2022/11/01 12:49:46;;;;;;;8.32;2.55;;;17.70;99.90;;;;;;5058396;28;20086;-54
2022/11/01 12:52:20;;;;;;;10.15;2.97;;;17.60;99.90;;;;;;5071063;28;20090;-52
2022/11/01 12:55:19;;;;;;;6.88;2.30;;;17.60;99.90;;;;;;5070402;28;20033;-50
2022/11/01 12:57:47;;;;;;;7.30;2.70;;;17.60;99.90;;;;;;5076815;28;20059;-50
2022/11/01 13:00:25;;;;;;;11.23;2.75;;;17.50;99.90;;;;;;5103470;28;20120;-50
2022/11/01 13:03:02;;;;;;;7.57;2.55;;;17.40;99.90;;;;;;5112057;28;20076;-50
2022/11/01 13:06:05;;;;;;;10.25;3.30;;;17.30;99.90;;;;;;5077762;28;20086;-51
2022/11/01 13:08:57;;;;;;;8.45;3.08;;;17.30;99.90;;;;;;5100783;28;20126;-53
2022/11/01 13:11:27;;;;;;;8.73;2.88;;;17.30;99.90;;;;;;5077519;28;20079;-53
2022/11/01 13:14:25;;;;;;;6.57;2.60;;;17.30;99.90;;;;;;5104490;28;20040;-51
2022/11/01 13:17:07;;;;;;;9.25;2.20;;;17.20;99.90;;;;;;5070754;28;20046;-53
2022/11/01 13:19:47;;;;;;;6.40;2.58;;;17.30;99.90;;;;;;5070389;28;20062;-51
2022/11/01 13:22:36;;;;;;;5.85;2.90;;;17.30;99.90;;;;;;5093727;28;20035;-50